Time;durP1;ratioP1;P1;durP2;ratioP2;P2;SDS_P1;SDS_P2;PMS_P1;PMS_P2;Temp;Humidity;BMP_temperature;BMP_pressure;BME280_temperature;BME280_humidity;BME280_pressure;Samples;Min_cycle;Max_cycle;Signal;HPM_P1;HPM_P2
2021/09/24 00:00:56;;;;;;;32.20;6.38;;;;;;;;;;5054264;28;20064;-79
2021/09/24 00:03:23;;;;;;;37.33;4.88;;;;;;;;;;5055437;28;20445;-79
2021/09/24 00:05:53;;;;;;;32.28;4.07;;;;;;;;;;5055680;28;20067;-82
2021/09/24 00:08:20;;;;;;;43.75;5.22;;;;;;;;;;5056090;28;20053;-79
2021/09/24 00:10:47;;;;;;;42.78;5.75;;;;;;;;;;5054747;28;20045;-80
2021/09/24 00:13:13;;;;;;;42.95;5.13;;;;;;;;;;5056537;28;20068;-79
2021/09/24 00:15:40;;;;;;;39.58;4.68;;;;;;;;;;5056935;28;20052;-80
2021/09/24 00:18:07;;;;;;;52.17;6.43;;;;;;;;;;5054725;28;20064;-80
2021/09/24 00:20:34;;;;;;;41.13;5.30;;;;;;;;;;5055543;28;20143;-80
2021/09/24 00:23:01;;;;;;;45.38;5.13;;;;;;;;;;5054715;28;20044;-80
2021/09/24 00:25:28;;;;;;;40.25;6.95;;;;;;;;;;5057779;28;20133;-80
2021/09/24 00:27:55;;;;;;;44.08;6.00;;;;;;;;;;5057544;28;20049;-80
2021/09/24 00:30:28;;;;;;;34.80;4.35;;;;;;;;;;5059415;28;20094;-80
2021/09/24 00:32:54;;;;;;;27.83;4.65;;;;;;;;;;5057896;28;20079;-80
2021/09/24 00:35:21;;;;;;;33.28;5.20;;;;;;;;;;5059887;28;20076;-81
2021/09/24 00:37:47;;;;;;;39.88;4.90;;;;;;;;;;5058649;28;20143;-80
2021/09/24 00:40:14;;;;;;;35.70;4.78;;;;;;;;;;5065155;28;20052;-79
2021/09/24 00:42:41;;;;;;;35.78;4.65;;;;;;;;;;5063449;28;20048;-80
2021/09/24 00:45:08;;;;;;;39.45;5.10;;;;;;;;;;5056875;28;20121;-81
2021/09/24 00:47:42;;;;;;;30.33;4.40;;;;;;;;;;5058080;28;20159;-81
2021/09/24 00:50:08;;;;;;;36.38;5.97;;;;;;;;;;5058272;28;20397;-81
2021/09/24 00:52:35;;;;;;;35.08;5.28;;;;;;;;;;5057464;28;20497;-81
2021/09/24 00:55:05;;;;;;;26.83;5.47;;;;;;;;;;5057268;28;20087;-81
2021/09/24 00:57:32;;;;;;;40.63;5.32;;;;;;;;;;5060214;28;20048;-81
2021/09/24 01:00:03;;;;;;;47.22;5.88;;;;;;;;;;5060564;28;20088;-81
2021/09/24 01:02:33;;;;;;;36.63;5.43;;;;;;;;;;5058661;28;20099;-81
2021/09/24 01:05:04;;;;;;;39.95;6.53;;;;;;;;;;5059719;28;20425;-81
2021/09/24 01:07:31;;;;;;;31.67;5.30;;;;;;;;;;5070830;28;20298;-80
2021/09/24 01:09:58;;;;;;;32.70;5.18;;;;;;;;;;5069434;28;20049;-81
2021/09/24 01:12:24;;;;;;;35.00;5.60;;;;;;;;;;5061407;28;20313;-81
2021/09/24 01:14:58;;;;;;;27.50;5.65;;;;;;;;;;5061487;28;20060;-81
2021/09/24 01:17:25;;;;;;;36.25;5.63;;;;;;;;;;5060959;28;20083;-81
2021/09/24 01:19:52;;;;;;;33.65;6.50;;;;;;;;;;5059639;28;20147;-81
2021/09/24 01:22:19;;;;;;;32.03;5.40;;;;;;;;;;5060450;28;20047;-81
2021/09/24 01:24:46;;;;;;;39.63;6.03;;;;;;;;;;5058909;28;20048;-80
2021/09/24 01:27:13;;;;;;;44.78;6.70;;;;;;;;;;5058504;28;20053;-81
2021/09/24 01:29:40;;;;;;;31.15;5.97;;;;;;;;;;5058390;28;20055;-80
2021/09/24 01:32:07;;;;;;;34.30;6.20;;;;;;;;;;5058781;28;20128;-81
2021/09/24 01:34:34;;;;;;;21.83;5.50;;;;;;;;;;5059046;28;20148;-81
2021/09/24 01:37:01;;;;;;;27.55;5.80;;;;;;;;;;5058959;28;20076;-81
2021/09/24 01:39:28;;;;;;;30.73;5.30;;;;;;;;;;5059671;28;20052;-81
2021/09/24 01:41:54;;;;;;;24.25;5.95;;;;;;;;;;5059672;28;20334;-80
2021/09/24 01:44:21;;;;;;;31.35;6.28;;;;;;;;;;5063010;28;20052;-80
2021/09/24 01:46:47;;;;;;;40.88;6.45;;;;;;;;;;5062508;28;20092;-80
2021/09/24 01:49:14;;;;;;;29.20;5.88;;;;;;;;;;5062880;28;20049;-79
2021/09/24 01:51:42;;;;;;;34.42;5.78;;;;;;;;;;5058774;28;20376;-79
2021/09/24 01:54:09;;;;;;;35.00;5.90;;;;;;;;;;5058314;28;20128;-79
2021/09/24 01:56:35;;;;;;;44.30;6.70;;;;;;;;;;5058866;28;20052;-79
2021/09/24 01:59:03;;;;;;;37.97;6.13;;;;;;;;;;5056753;28;20342;-79
2021/09/24 02:01:29;;;;;;;42.55;6.32;;;;;;;;;;5056943;28;20394;-79
2021/09/24 02:03:56;;;;;;;29.45;5.53;;;;;;;;;;5056775;28;20061;-79
2021/09/24 02:06:23;;;;;;;45.30;6.20;;;;;;;;;;5058271;28;20194;-80
2021/09/24 02:08:53;;;;;;;39.15;6.43;;;;;;;;;;5056904;28;20151;-79
2021/09/24 02:11:23;;;;;;;39.20;6.95;;;;;;;;;;5056117;28;20315;-79
2021/09/24 02:13:49;;;;;;;39.67;6.82;;;;;;;;;;5057105;28;20048;-79
2021/09/24 02:16:16;;;;;;;29.23;6.90;;;;;;;;;;5056239;28;20206;-79
2021/09/24 02:18:43;;;;;;;25.05;5.97;;;;;;;;;;5056326;28;20434;-79
2021/09/24 02:21:10;;;;;;;32.92;5.15;;;;;;;;;;5055994;28;20064;-79
2021/09/24 02:23:37;;;;;;;36.05;6.18;;;;;;;;;;5062342;28;20049;-79
2021/09/24 02:26:07;;;;;;;49.47;5.85;;;;;;;;;;5062204;28;20071;-79
2021/09/24 02:28:36;;;;;;;35.20;5.10;;;;;;;;;;5057239;28;20052;-79
2021/09/24 02:31:08;;;;;;;36.25;5.60;;;;;;;;;;5056908;28;20093;-79
2021/09/24 02:33:36;;;;;;;25.02;4.40;;;;;;;;;;5056781;28;20088;-79
2021/09/24 02:36:03;;;;;;;31.40;5.88;;;;;;;;;;5057697;28;20390;-79
2021/09/24 02:38:33;;;;;;;26.98;4.47;;;;;;;;;;5055473;28;20056;-79
2021/09/24 02:41:00;;;;;;;31.67;4.45;;;;;;;;;;5055811;28;20163;-80
2021/09/24 02:43:27;;;;;;;27.13;4.80;;;;;;;;;;5053029;28;20108;-79
2021/09/24 02:45:53;;;;;;;36.28;4.85;;;;;;;;;;5053667;28;20044;-79
2021/09/24 02:48:20;;;;;;;25.25;4.32;;;;;;;;;;5057054;28;20091;-80
2021/09/24 02:50:50;;;;;;;24.98;3.92;;;;;;;;;;5062362;28;20052;-80
2021/09/24 02:53:17;;;;;;;29.15;5.07;;;;;;;;;;5072786;28;20047;-80
2021/09/24 02:55:44;;;;;;;32.72;4.57;;;;;;;;;;5069478;28;20055;-80
2021/09/24 02:58:10;;;;;;;33.53;4.90;;;;;;;;;;5058223;28;20296;-80
2021/09/24 03:00:37;;;;;;;29.02;3.95;;;;;;;;;;5057761;28;20349;-80
2021/09/24 03:03:04;;;;;;;42.85;4.28;;;;;;;;;;5065140;28;20037;-80
2021/09/24 03:05:32;;;;;;;27.63;4.03;;;;;;;;;;5071136;28;20029;-80
2021/09/24 03:07:58;;;;;;;18.77;3.53;;;;;;;;;;5058899;28;20086;-79
2021/09/24 03:10:25;;;;;;;23.35;3.80;;;;;;;;;;5057965;28;20052;-79
2021/09/24 03:12:52;;;;;;;35.78;4.20;;;;;;;;;;5055389;28;20384;-80
2021/09/24 03:15:19;;;;;;;30.88;3.53;;;;;;;;;;5059068;28;20053;-80
2021/09/24 03:17:46;;;;;;;25.20;4.10;;;;;;;;;;5058813;28;20425;-80
2021/09/24 03:20:13;;;;;;;27.90;4.32;;;;;;;;;;5063699;28;20049;-80
2021/09/24 03:22:40;;;;;;;30.42;3.67;;;;;;;;;;5062990;28;20061;-80
2021/09/24 03:25:07;;;;;;;31.65;4.25;;;;;;;;;;5060178;28;20045;-82
2021/09/24 03:27:35;;;;;;;23.00;2.95;;;;;;;;;;5055198;28;20405;-79
2021/09/24 03:30:03;;;;;;;29.40;3.90;;;;;;;;;;5055521;28;20151;-80
2021/09/24 03:32:30;;;;;;;24.70;3.70;;;;;;;;;;5054612;28;20045;-79
2021/09/24 03:34:57;;;;;;;27.23;3.63;;;;;;;;;;5070837;28;20053;-79
2021/09/24 03:37:25;;;;;;;33.30;4.57;;;;;;;;;;5057983;28;20053;-79
2021/09/24 03:39:52;;;;;;;26.02;4.25;;;;;;;;;;5062814;28;20049;-80
2021/09/24 03:42:19;;;;;;;33.33;4.25;;;;;;;;;;5063051;28;20072;-80
2021/09/24 03:44:46;;;;;;;32.92;5.28;;;;;;;;;;5064575;28;20087;-80
2021/09/24 03:47:12;;;;;;;24.15;3.90;;;;;;;;;;5061877;28;20107;-81
2021/09/24 03:49:39;;;;;;;24.92;3.78;;;;;;;;;;5056703;28;20360;-81
2021/09/24 03:52:06;;;;;;;31.90;4.20;;;;;;;;;;5054539;28;20106;-79
2021/09/24 03:54:33;;;;;;;38.63;4.28;;;;;;;;;;5054710;28;20063;-80
2021/09/24 03:57:00;;;;;;;29.75;4.75;;;;;;;;;;5056941;28;20048;-81
2021/09/24 03:59:27;;;;;;;20.25;3.25;;;;;;;;;;5053704;28;20084;-80
2021/09/24 04:01:53;;;;;;;20.88;4.25;;;;;;;;;;5064662;28;20282;-80
2021/09/24 04:04:20;;;;;;;24.45;4.22;;;;;;;;;;5071063;28;20056;-80
2021/09/24 04:06:47;;;;;;;22.77;3.70;;;;;;;;;;5057407;28;20451;-80
2021/09/24 04:09:14;;;;;;;26.85;3.60;;;;;;;;;;5081284;28;20048;-80
2021/09/24 04:11:40;;;;;;;24.15;3.25;;;;;;;;;;5065500;28;20045;-80
2021/09/24 04:14:07;;;;;;;27.23;3.53;;;;;;;;;;5059123;28;20037;-80
2021/09/24 04:16:34;;;;;;;26.98;3.75;;;;;;;;;;5061198;28;20049;-80
2021/09/24 04:19:04;;;;;;;28.58;4.28;;;;;;;;;;5067073;28;20052;-80
2021/09/24 04:21:31;;;;;;;25.27;4.90;;;;;;;;;;5063020;28;20128;-80
2021/09/24 04:23:57;;;;;;;28.38;5.65;;;;;;;;;;5055300;28;20273;-80
2021/09/24 04:26:24;;;;;;;29.13;4.22;;;;;;;;;;5055207;28;20045;-80
2021/09/24 04:29:06;;;;;;;26.55;4.63;;;;;;;;;;5048237;28;20037;-80
2021/09/24 04:31:34;;;;;;;23.48;4.55;;;;;;;;;;5055721;28;20413;-80
2021/09/24 04:34:00;;;;;;;34.47;4.78;;;;;;;;;;5054907;28;20041;-80
2021/09/24 04:36:27;;;;;;;24.38;4.82;;;;;;;;;;5056069;28;20126;-80
2021/09/24 04:38:55;;;;;;;17.17;4.05;;;;;;;;;;5053458;28;20063;-80
2021/09/24 04:41:22;;;;;;;31.30;4.35;;;;;;;;;;5053842;28;20432;-81
2021/09/24 04:43:49;;;;;;;31.75;5.30;;;;;;;;;;5045403;28;20318;-80
2021/09/24 04:46:16;;;;;;;41.00;4.18;;;;;;;;;;5041556;28;20386;-80
2021/09/24 04:48:43;;;;;;;30.85;4.50;;;;;;;;;;5050762;28;20045;-81
2021/09/24 04:51:09;;;;;;;22.75;4.22;;;;;;;;;;5065336;28;20388;-81
2021/09/24 04:53:36;;;;;;;38.15;4.63;;;;;;;;;;5068824;28;20106;-81
2021/09/24 04:56:03;;;;;;;30.40;4.30;;;;;;;;;;5074867;28;20144;-80
2021/09/24 04:58:30;;;;;;;36.00;4.68;;;;;;;;;;5074591;28;20059;-81
2021/09/24 05:00:56;;;;;;;27.40;3.88;;;;;;;;;;5071514;28;20087;-81
2021/09/24 05:03:23;;;;;;;30.88;3.95;;;;;;;;;;5056519;28;20045;-80
2021/09/24 05:05:50;;;;;;;25.95;3.72;;;;;;;;;;5049226;28;20049;-81
2021/09/24 05:08:17;;;;;;;22.38;3.45;;;;;;;;;;5050551;28;20499;-81
2021/09/24 05:10:43;;;;;;;33.25;4.18;;;;;;;;;;5049792;28;20371;-80
2021/09/24 05:13:10;;;;;;;15.52;3.17;;;;;;;;;;5050047;28;20380;-81
2021/09/24 05:15:37;;;;;;;18.08;3.80;;;;;;;;;;5060729;28;20417;-79
2021/09/24 05:18:03;;;;;;;19.05;3.35;;;;;;;;;;5047210;28;20333;-81
2021/09/24 05:20:30;;;;;;;20.80;3.25;;;;;;;;;;5046475;28;20057;-81
2021/09/24 05:23:06;;;;;;;14.50;3.38;;;;;;;;;;5044742;28;20125;-81
2021/09/24 05:25:33;;;;;;;23.25;3.60;;;;;;;;;;5040365;28;20205;-81
2021/09/24 05:27:59;;;;;;;26.63;4.10;;;;;;;;;;5070622;28;20246;-82
2021/09/24 05:30:26;;;;;;;23.60;3.42;;;;;;;;;;5041904;28;20200;-80
2021/09/24 05:32:53;;;;;;;32.40;4.70;;;;;;;;;;5047529;28;20049;-81
2021/09/24 05:35:23;;;;;;;32.78;3.75;;;;;;;;;;5049167;28;20068;-81
2021/09/24 05:37:52;;;;;;;22.40;3.80;;;;;;;;;;5047684;28;20233;-81
2021/09/24 05:40:29;;;;;;;24.42;3.67;;;;;;;;;;5036472;28;20415;-81
2021/09/24 05:42:55;;;;;;;18.00;3.28;;;;;;;;;;5041237;28;20049;-81
2021/09/24 05:45:24;;;;;;;23.88;4.10;;;;;;;;;;5048116;28;20076;-81
2021/09/24 05:47:51;;;;;;;20.70;3.20;;;;;;;;;;5073673;28;20044;-81
2021/09/24 05:50:20;;;;;;;21.75;3.58;;;;;;;;;;5036619;28;20068;-81
2021/09/24 05:52:48;;;;;;;28.52;4.43;;;;;;;;;;5049153;28;20153;-82
2021/09/24 05:55:16;;;;;;;18.40;3.17;;;;;;;;;;5050558;28;20293;-81
2021/09/24 05:57:45;;;;;;;20.48;3.40;;;;;;;;;;5037631;28;20076;-82
2021/09/24 06:00:16;;;;;;;16.60;3.08;;;;;;;;;;5051433;28;20285;-82
2021/09/24 06:02:43;;;;;;;15.23;3.22;;;;;;;;;;5044614;28;20045;-82
2021/09/24 06:05:10;;;;;;;21.48;4.40;;;;;;;;;;5045616;28;20327;-81
2021/09/24 06:07:37;;;;;;;26.83;3.85;;;;;;;;;;5047144;28;20116;-82
2021/09/24 06:10:06;;;;;;;22.35;4.00;;;;;;;;;;5051463;28;20076;-81
2021/09/24 06:12:33;;;;;;;20.48;3.53;;;;;;;;;;5062507;28;20044;-81
2021/09/24 06:15:03;;;;;;;20.10;4.07;;;;;;;;;;5062429;28;20198;-82
2021/09/24 06:17:31;;;;;;;23.38;4.10;;;;;;;;;;5052003;28;20147;-81
2021/09/24 06:19:57;;;;;;;20.38;3.42;;;;;;;;;;5049409;28;20117;-82
2021/09/24 06:22:25;;;;;;;23.25;4.15;;;;;;;;;;5057897;28;20049;-82
2021/09/24 06:24:52;;;;;;;20.08;3.50;;;;;;;;;;5062644;28;20052;-82
2021/09/24 06:27:19;;;;;;;15.32;3.15;;;;;;;;;;5051201;28;20254;-83
2021/09/24 06:29:48;;;;;;;13.50;3.70;;;;;;;;;;5066217;28;20060;-81
2021/09/24 06:32:15;;;;;;;22.95;3.42;;;;;;;;;;5044681;28;20327;-83
2021/09/24 06:34:43;;;;;;;14.57;3.53;;;;;;;;;;5043453;28;20452;-83
2021/09/24 06:37:10;;;;;;;20.42;3.40;;;;;;;;;;5026755;28;20189;-83
2021/09/24 06:39:37;;;;;;;17.95;3.60;;;;;;;;;;5028801;28;20088;-82
2021/09/24 06:42:04;;;;;;;18.30;3.42;;;;;;;;;;5028245;28;20121;-83
2021/09/24 06:44:32;;;;;;;17.52;3.40;;;;;;;;;;5046400;28;20228;-84
2021/09/24 06:46:59;;;;;;;19.98;3.67;;;;;;;;;;5075307;28;20041;-83
2021/09/24 06:49:25;;;;;;;20.35;3.70;;;;;;;;;;5053828;28;20049;-83
2021/09/24 06:51:53;;;;;;;13.93;3.83;;;;;;;;;;5031765;28;20067;-82
2021/09/24 06:54:20;;;;;;;20.95;3.72;;;;;;;;;;5031675;28;20049;-83
2021/09/24 06:56:47;;;;;;;18.02;2.83;;;;;;;;;;5028774;28;20372;-82
2021/09/24 06:59:15;;;;;;;20.38;3.47;;;;;;;;;;5028513;28;20068;-83
2021/09/24 07:01:44;;;;;;;16.55;3.05;;;;;;;;;;5034759;28;20084;-83
2021/09/24 07:04:12;;;;;;;13.88;3.10;;;;;;;;;;5027681;28;20136;-84
2021/09/24 07:06:39;;;;;;;16.77;4.20;;;;;;;;;;5027290;28;20053;-83
2021/09/24 07:09:06;;;;;;;19.00;2.75;;;;;;;;;;5030392;28;20115;-82
2021/09/24 07:11:34;;;;;;;15.43;3.00;;;;;;;;;;5037334;28;20049;-82
2021/09/24 07:14:01;;;;;;;19.45;3.30;;;;;;;;;;5040997;28;20221;-83
2021/09/24 07:16:28;;;;;;;13.85;3.50;;;;;;;;;;5054894;28;20060;-84
2021/09/24 07:18:54;;;;;;;12.20;2.13;;;;;;;;;;5053994;28;20053;-83
2021/09/24 07:21:22;;;;;;;14.85;2.60;;;;;;;;;;5046985;28;20105;-83
2021/09/24 07:23:48;;;;;;;10.45;2.83;;;;;;;;;;5047657;28;20053;-84
2021/09/24 07:26:18;;;;;;;9.90;2.20;;;;;;;;;;5047856;28;20080;-83
2021/09/24 07:28:45;;;;;;;11.68;2.45;;;;;;;;;;5053281;28;20055;-84
2021/09/24 07:31:12;;;;;;;13.63;2.20;;;;;;;;;;5038022;28;20095;-84
2021/09/24 07:33:39;;;;;;;13.38;2.60;;;;;;;;;;5050489;28;20273;-85
2021/09/24 07:36:06;;;;;;;17.98;2.42;;;;;;;;;;5066322;28;20146;-85
2021/09/24 07:38:33;;;;;;;18.25;2.72;;;;;;;;;;5049105;28;20140;-84
2021/09/24 07:41:00;;;;;;;14.50;3.10;;;;;;;;;;5046346;28;20305;-84
2021/09/24 07:43:27;;;;;;;10.18;2.17;;;;;;;;;;5051553;28;20112;-84
2021/09/24 07:45:56;;;;;;;11.80;2.00;;;;;;;;;;5044670;28;20114;-85
2021/09/24 07:48:23;;;;;;;14.00;2.42;;;;;;;;;;5042090;28;20057;-84
2021/09/24 07:50:53;;;;;;;7.55;2.63;;;;;;;;;;5041937;28;20161;-84
2021/09/24 07:53:20;;;;;;;9.88;3.05;;;;;;;;;;5043504;28;20045;-84
2021/09/24 07:55:47;;;;;;;23.23;3.58;;;;;;;;;;5000017;28;20313;-83
2021/09/24 07:58:17;;;;;;;14.07;2.70;;;;;;;;;;5037949;28;20049;-83
2021/09/24 08:00:43;;;;;;;17.63;3.25;;;;;;;;;;5044923;28;20048;-84
2021/09/24 08:03:10;;;;;;;14.23;2.80;;;;;;;;;;5043930;28;20309;-84
2021/09/24 08:05:37;;;;;;;9.40;2.38;;;;;;;;;;5043452;28;20298;-84
2021/09/24 08:08:05;;;;;;;12.65;2.80;;;;;;;;;;5046581;28;20056;-84
2021/09/24 08:10:33;;;;;;;21.10;2.80;;;;;;;;;;5042500;28;20189;-84
2021/09/24 08:13:03;;;;;;;15.57;2.72;;;;;;;;;;5044203;28;20048;-84
2021/09/24 08:15:34;;;;;;;15.32;2.60;;;;;;;;;;5043912;28;20083;-84
2021/09/24 08:18:01;;;;;;;15.93;3.53;;;;;;;;;;5047470;28;20071;-84
2021/09/24 08:20:31;;;;;;;15.55;3.42;;;;;;;;;;5043575;28;20053;-84
2021/09/24 08:22:58;;;;;;;15.55;3.15;;;;;;;;;;5043380;28;20037;-83
2021/09/24 08:25:27;;;;;;;19.67;3.92;;;;;;;;;;5063679;28;20423;-83
2021/09/24 08:27:57;;;;;;;14.73;2.97;;;;;;;;;;5046921;28;20079;-83
2021/09/24 08:30:25;;;;;;;18.38;3.72;;;;;;;;;;5048272;28;20435;-82
2021/09/24 08:32:52;;;;;;;13.68;3.10;;;;;;;;;;5046661;28;20274;-83
2021/09/24 08:35:21;;;;;;;12.50;3.38;;;;;;;;;;5041562;28;20413;-83
2021/09/24 08:37:52;;;;;;;14.88;3.30;;;;;;;;;;5041694;28;20368;-83
2021/09/24 08:40:20;;;;;;;14.70;3.92;;;;;;;;;;5041194;28;20431;-83
2021/09/24 08:42:50;;;;;;;15.55;3.25;;;;;;;;;;5045855;28;20068;-82
2021/09/24 08:45:30;;;;;;;17.73;3.92;;;;;;;;;;5047689;28;20235;-83
2021/09/24 08:48:01;;;;;;;13.85;3.55;;;;;;;;;;5044433;28;20536;-83
2021/09/24 08:50:32;;;;;;;11.40;2.97;;;;;;;;;;5043107;28;20068;-83
2021/09/24 08:53:02;;;;;;;14.95;3.20;;;;;;;;;;5044851;28;20079;-82
2021/09/24 08:55:29;;;;;;;8.45;3.13;;;;;;;;;;5044660;28;20055;-82
2021/09/24 08:57:55;;;;;;;9.73;3.58;;;;;;;;;;5024176;28;20049;-82
2021/09/24 09:00:23;;;;;;;9.77;3.35;;;;;;;;;;5037359;28;20084;-84
2021/09/24 09:02:54;;;;;;;18.13;3.45;;;;;;;;;;5045451;28;20087;-83
2021/09/24 09:05:23;;;;;;;12.43;3.00;;;;;;;;;;5044076;28;20053;-84
2021/09/24 09:08:16;;;;;;;14.20;3.85;;;;;;;;;;5043224;28;20072;-81
2021/09/24 09:10:46;;;;;;;14.48;3.05;;;;;;;;;;5061013;28;20056;-83
2021/09/24 09:13:13;;;;;;;11.88;3.10;;;;;;;;;;5044783;28;20080;-83
2021/09/24 09:15:50;;;;;;;14.07;3.75;;;;;;;;;;5042920;28;20181;-83
2021/09/24 09:18:16;;;;;;;;;;;;;;;;;;5048379;28;20057;-83
2021/09/24 09:20:44;;;;;;;14.18;3.03;;;;;;;;;;5044798;28;19931;-83
2021/09/24 09:23:11;;;;;;;16.00;4.22;;;;;;;;;;5045168;28;20103;-83
2021/09/24 09:25:42;;;;;;;10.52;2.60;;;;;;;;;;5044941;28;20117;-81
2021/09/24 09:28:13;;;;;;;8.25;2.78;;;;;;;;;;5060556;28;20093;-81
2021/09/24 09:30:42;;;;;;;8.95;2.90;;;;;;;;;;5045305;28;20088;-84
2021/09/24 09:33:08;;;;;;;11.27;3.20;;;;;;;;;;5036152;28;20048;-82
2021/09/24 09:35:39;;;;;;;14.35;3.03;;;;;;;;;;5046838;28;20060;-82
2021/09/24 09:38:15;;;;;;;9.95;2.40;;;;;;;;;;5051770;28;20109;-84
2021/09/24 09:40:43;;;;;;;16.10;3.05;;;;;;;;;;5055926;28;20040;-81
2021/09/24 09:43:09;;;;;;;12.07;2.97;;;;;;;;;;5040211;28;20067;-84
2021/09/24 09:45:40;;;;;;;9.43;2.38;;;;;;;;;;5047106;28;20076;-81
2021/09/24 09:48:13;;;;;;;8.10;2.78;;;;;;;;;;5029635;28;20172;-82
2021/09/24 09:50:40;;;;;;;12.40;2.40;;;;;;;;;;5051158;28;20200;-82
2021/09/24 09:53:17;;;;;;;15.40;2.97;;;;;;;;;;5055224;28;20080;-83
2021/09/24 09:55:49;;;;;;;14.55;2.95;;;;;;;;;;5040759;28;20144;-83
2021/09/24 09:58:16;;;;;;;16.73;3.45;;;;;;;;;;5047682;28;20158;-82
2021/09/24 10:00:58;;;;;;;10.68;3.55;;;;;;;;;;5043264;28;20107;-82
2021/09/24 10:03:29;;;;;;;16.48;3.10;;;;;;;;;;5028680;28;20049;-82
2021/09/24 10:06:03;;;;;;;8.85;2.80;;;;;;;;;;5036825;28;20041;-83
2021/09/24 10:08:39;;;;;;;14.20;2.67;;;;;;;;;;5060135;28;20204;-82
2021/09/24 10:11:08;;;;;;;11.48;2.90;;;;;;;;;;5060694;28;20049;-82
2021/09/24 10:13:37;;;;;;;12.30;2.85;;;;;;;;;;5057722;28;20083;-83
2021/09/24 10:16:04;;;;;;;9.75;2.80;;;;;;;;;;5054079;28;20206;-82
2021/09/24 10:18:34;;;;;;;11.88;2.80;;;;;;;;;;5068664;28;20064;-83
2021/09/24 10:21:01;;;;;;;12.15;2.72;;;;;;;;;;5053957;28;20046;-83
2021/09/24 10:23:28;;;;;;;14.93;2.75;;;;;;;;;;5046188;28;20102;-82
2021/09/24 10:26:00;;;;;;;17.95;3.20;;;;;;;;;;5048382;28;20132;-83
2021/09/24 10:28:29;;;;;;;11.13;2.60;;;;;;;;;;5044713;28;20048;-82
2021/09/24 10:30:57;;;;;;;14.10;2.72;;;;;;;;;;5025105;28;20618;-83
2021/09/24 10:33:41;;;;;;;7.88;2.50;;;;;;;;;;5026850;28;20302;-83
2021/09/24 10:36:08;;;;;;;11.52;2.88;;;;;;;;;;5034249;28;20045;-83
2021/09/24 10:38:42;;;;;;;13.23;2.72;;;;;;;;;;5047559;28;20091;-83
2021/09/24 10:41:12;;;;;;;16.15;2.90;;;;;;;;;;5047435;28;20045;-84
2021/09/24 10:43:43;;;;;;;10.98;2.85;;;;;;;;;;5057352;28;20099;-83
2021/09/24 10:46:25;;;;;;;6.78;2.28;;;;;;;;;;5050904;28;20124;-84
2021/09/24 10:49:10;;;;;;;11.02;2.67;;;;;;;;;;5045348;28;20048;-82
2021/09/24 10:51:49;;;;;;;8.90;2.92;;;;;;;;;;5028403;28;20309;-83
2021/09/24 10:54:17;;;;;;;6.32;2.55;;;;;;;;;;5025938;28;20287;-83
2021/09/24 10:56:59;;;;;;;11.35;3.42;;;;;;;;;;5025082;28;20136;-82
2021/09/24 10:59:29;;;;;;;7.90;2.60;;;;;;;;;;5041636;28;20144;-82
2021/09/24 11:01:57;;;;;;;12.15;3.28;;;;;;;;;;5049560;28;20508;-83
2021/09/24 11:04:40;;;;;;;10.90;2.67;;;;;;;;;;5052159;28;20411;-83
2021/09/24 11:07:07;;;;;;;12.88;3.17;;;;;;;;;;5051625;28;20191;-84
2021/09/24 11:09:49;;;;;;;10.57;3.28;;;;;;;;;;5047495;28;20076;-83
2021/09/24 11:12:19;;;;;;;9.57;2.85;;;;;;;;;;5045074;28;20060;-83
2021/09/24 11:14:49;;;;;;;12.40;3.17;;;;;;;;;;5040370;28;20205;-83
2021/09/24 11:17:34;;;;;;;12.32;3.25;;;;;;;;;;5029163;28;20160;-82
2021/09/24 11:20:21;;;;;;;9.60;2.67;;;;;;;;;;5028499;28;20091;-83
2021/09/24 11:22:55;;;;;;;12.02;3.00;;;;;;;;;;5023656;28;20053;-83
2021/09/24 11:25:22;;;;;;;10.30;3.40;;;;;;;;;;5029900;28;20055;-82
2021/09/24 11:27:50;;;;;;;9.13;3.15;;;;;;;;;;5044106;28;20072;-82
2021/09/24 11:30:19;;;;;;;12.43;3.53;;;;;;;;;;5045377;28;20169;-84
2021/09/24 11:32:56;;;;;;;11.48;3.33;;;;;;;;;;5023864;28;20060;-84
2021/09/24 11:35:40;;;;;;;9.05;3.60;;;;;;;;;;5028322;28;20049;-83
2021/09/24 11:38:15;;;;;;;7.47;3.25;;;;;;;;;;5045301;28;20125;-83
2021/09/24 11:40:47;;;;;;;10.70;3.30;;;;;;;;;;5042665;28;20095;-82
2021/09/24 11:43:21;;;;;;;12.02;3.30;;;;;;;;;;5047723;28;20103;-82
2021/09/24 11:45:47;;;;;;;12.30;4.53;;;;;;;;;;5045215;28;20138;-82
2021/09/24 11:48:14;;;;;;;10.13;3.60;;;;;;;;;;5046737;28;20424;-82
2021/09/24 11:50:41;;;;;;;10.93;4.18;;;;;;;;;;5054832;28;20194;-81
2021/09/24 11:53:13;;;;;;;14.27;4.10;;;;;;;;;;5060106;28;20052;-83
2021/09/24 11:55:44;;;;;;;10.27;3.65;;;;;;;;;;5058191;28;20056;-82
2021/09/24 11:58:24;;;;;;;8.15;4.00;;;;;;;;;;5057525;28;20164;-82
2021/09/24 12:00:52;;;;;;;18.90;4.85;;;;;;;;;;5051855;28;20114;-83
2021/09/24 12:03:29;;;;;;;12.95;4.65;;;;;;;;;;5041476;28;20187;-82
2021/09/24 12:05:58;;;;;;;12.93;4.97;;;;;;;;;;5060499;28;20107;-81
2021/09/24 12:08:26;;;;;;;14.02;4.10;;;;;;;;;;5046750;28;20049;-82
2021/09/24 12:10:58;;;;;;;11.40;4.10;;;;;;;;;;5023259;28;20049;-83
2021/09/24 12:13:45;;;;;;;16.13;4.38;;;;;;;;;;5029944;28;20267;-83
2021/09/24 12:16:15;;;;;;;15.30;4.85;;;;;;;;;;5042205;28;20129;-83
2021/09/24 12:18:44;;;;;;;10.68;4.22;;;;;;;;;;5034291;28;20048;-82
2021/09/24 12:21:12;;;;;;;16.33;4.40;;;;;;;;;;5043388;28;20237;-84
2021/09/24 12:23:39;;;;;;;12.50;5.05;;;;;;;;;;5040210;28;20056;-83
2021/09/24 12:26:10;;;;;;;15.95;5.18;;;;;;;;;;5041491;28;20072;-83
2021/09/24 12:28:37;;;;;;;12.18;4.55;;;;;;;;;;5042658;28;20045;-83
2021/09/24 12:31:05;;;;;;;12.05;4.88;;;;;;;;;;5026050;28;20045;-82
2021/09/24 12:33:32;;;;;;;16.25;4.57;;;;;;;;;;5025020;28;20104;-83
2021/09/24 12:36:03;;;;;;;15.70;4.68;;;;;;;;;;5024806;28;20059;-83
2021/09/24 12:38:32;;;;;;;11.43;5.47;;;;;;;;;;5023912;28;20483;-82
2021/09/24 12:41:16;;;;;;;14.55;5.35;;;;;;;;;;5033074;28;20746;-82
2021/09/24 12:43:43;;;;;;;17.63;5.70;;;;;;;;;;5048807;28;20064;-83
2021/09/24 12:46:11;;;;;;;12.43;6.90;;;;;;;;;;5034921;28;20049;-82
2021/09/24 12:48:39;;;;;;;11.90;6.57;;;;;;;;;;5042571;28;20048;-83
2021/09/24 12:51:07;;;;;;;17.60;7.75;;;;;;;;;;5046412;28;20124;-83
2021/09/24 12:53:34;;;;;;;12.25;7.03;;;;;;;;;;5057208;28;20060;-82
2021/09/24 12:56:02;;;;;;;13.65;6.57;;;;;;;;;;5080603;28;20045;-82
2021/09/24 12:58:33;;;;;;;16.30;7.00;;;;;;;;;;5043216;28;20105;-82
2021/09/24 13:01:02;;;;;;;14.90;7.38;;;;;;;;;;5030529;28;20056;-82
2021/09/24 13:03:30;;;;;;;16.08;7.68;;;;;;;;;;5025378;28;20061;-83
2021/09/24 13:05:58;;;;;;;15.50;8.27;;;;;;;;;;5033872;28;20268;-82
2021/09/24 13:08:26;;;;;;;15.75;7.05;;;;;;;;;;5048221;28;20131;-83
2021/09/24 13:10:57;;;;;;;14.10;6.97;;;;;;;;;;5050851;28;20237;-83
2021/09/24 13:13:24;;;;;;;14.45;8.27;;;;;;;;;;5038016;28;20236;-82
2021/09/24 13:15:51;;;;;;;14.95;7.82;;;;;;;;;;5031114;28;20049;-83
2021/09/24 13:18:18;;;;;;;16.38;8.73;;;;;;;;;;5026924;28;20133;-83
2021/09/24 13:20:46;;;;;;;14.85;9.20;;;;;;;;;;5038099;28;20045;-83
2021/09/24 13:23:12;;;;;;;16.33;9.70;;;;;;;;;;5028841;28;20532;-82
2021/09/24 13:25:52;;;;;;;19.55;11.02;;;;;;;;;;5029718;28;20286;-85
2021/09/24 13:28:19;;;;;;;27.23;11.85;;;;;;;;;;5028386;28;20173;-84
2021/09/24 13:30:45;;;;;;;23.80;11.95;;;;;;;;;;5028160;28;20055;-83
2021/09/24 13:33:21;;;;;;;23.33;12.63;;;;;;;;;;5047934;28;20049;-83
2021/09/24 13:35:48;;;;;;;24.05;11.50;;;;;;;;;;5049838;28;20060;-82
2021/09/24 13:38:15;;;;;;;22.70;12.57;;;;;;;;;;5051572;28;20280;-83
2021/09/24 13:40:42;;;;;;;19.95;12.20;;;;;;;;;;5047865;28;20224;-83
2021/09/24 13:43:09;;;;;;;27.02;14.23;;;;;;;;;;5043061;28;20285;-86
2021/09/24 13:45:36;;;;;;;25.17;14.55;;;;;;;;;;5047257;28;20416;-83
2021/09/24 13:48:10;;;;;;;28.88;15.30;;;;;;;;;;5043138;28;20487;-83
2021/09/24 13:50:36;;;;;;;22.67;14.07;;;;;;;;;;5039738;28;20454;-83
2021/09/24 13:53:05;;;;;;;24.27;12.65;;;;;;;;;;5035154;28;20183;-83
2021/09/24 13:55:32;;;;;;;24.38;13.18;;;;;;;;;;5041871;28;20110;-84
2021/09/24 13:58:01;;;;;;;27.98;14.73;;;;;;;;;;5042525;28;20048;-84
2021/09/24 14:00:28;;;;;;;25.17;15.20;;;;;;;;;;5047715;28;20087;-83
2021/09/24 14:02:54;;;;;;;27.17;16.00;;;;;;;;;;5048102;28;20289;-83
2021/09/24 14:05:22;;;;;;;25.15;14.82;;;;;;;;;;5027584;28;20054;-83
2021/09/24 14:07:48;;;;;;;24.33;15.43;;;;;;;;;;5026729;28;20054;-83
2021/09/24 14:10:16;;;;;;;27.15;14.13;;;;;;;;;;5043525;28;20239;-83
2021/09/24 14:12:43;;;;;;;25.92;14.07;;;;;;;;;;5064851;28;20087;-83
2021/09/24 14:15:11;;;;;;;28.13;14.65;;;;;;;;;;5050298;28;20150;-84
2021/09/24 14:17:39;;;;;;;28.88;16.23;;;;;;;;;;5044704;28;20148;-83
2021/09/24 14:20:07;;;;;;;24.90;15.30;;;;;;;;;;5029249;28;20111;-83
2021/09/24 14:22:35;;;;;;;34.17;16.65;;;;;;;;;;5030612;28;20251;-83
2021/09/24 14:25:03;;;;;;;29.23;17.10;;;;;;;;;;5042184;28;20496;-83
2021/09/24 14:27:30;;;;;;;31.00;17.25;;;;;;;;;;5043667;28;20053;-83
2021/09/24 14:29:57;;;;;;;30.58;17.17;;;;;;;;;;5060860;28;20187;-83
2021/09/24 14:32:24;;;;;;;31.60;17.13;;;;;;;;;;5064555;28;20431;-83
2021/09/24 14:34:50;;;;;;;29.52;17.88;;;;;;;;;;5065044;28;20383;-83
2021/09/24 14:37:17;;;;;;;27.25;16.05;;;;;;;;;;5055147;28;20045;-83
2021/09/24 14:39:44;;;;;;;29.88;15.63;;;;;;;;;;5043498;28;20053;-83